Austin (LCRA Redbud)'s Hourly Summary for Sunday, August 10, 2025
Hour Temp
(f)
RH
(%)
Solar Rad.
(MJ/m2)
Rainfall
(in)
Wind
(mph)
Battery
(volts)
8/10/2025 12:00 AM 85 67 0 0 2.64 0
8/10/2025 1:00 AM 84 68 0 0 2.34 0
8/10/2025 2:00 AM 83 74 0 0 1.98 0
8/10/2025 3:00 AM 81 80 0 0 2.21 0
8/10/2025 4:00 AM 80 85 0 0 1.72 0
8/10/2025 5:00 AM 79 86 0 0 1.2 0
8/10/2025 6:00 AM 79 92 0 0 0.63 0
8/10/2025 7:00 AM 77 97 0 0 0.4 0
8/10/2025 8:00 AM 81 97 0.09 0 0.4 0
8/10/2025 9:00 AM 85 78 0.75 0 0.92 0
8/10/2025 10:00 AM 87 66 1.43 0 1.63 0
8/10/2025 11:00 AM 90 58 2.08 0 1.71 0
8/10/2025 12:00 PM 92 51 2.54 0 2.02 0
8/10/2025 1:00 PM 94 46 2.93 0 1.9 0
8/10/2025 2:00 PM 96 39 3.2 0 2.51 0
8/10/2025 3:00 PM 98 37 3.2 0 2.5 0
8/10/2025 4:00 PM 98 34 2.95 0 2.16 0
8/10/2025 5:00 PM 98 34 2.29 0 2.35 0
8/10/2025 6:00 PM 98 31 1.68 0 1.44 0
8/10/2025 7:00 PM 97 33 0.91 0 1.95 0
8/10/2025 8:00 PM 96 49 0.19 0 3.12 0
8/10/2025 9:00 PM 90 56 0.01 0 4.04 0
8/10/2025 10:00 PM 88 56 0 0 2.91 0
8/10/2025 11:00 PM 87 60 0 0 2.86 0
Data Summary 88 61 24.25 0.00 1.98 0.00